createdAt,value
2019-02-12T00:02:17.704Z,10.17
2019-02-12T00:04:52.027Z,9.80
2019-02-12T00:07:22.728Z,10.10
2019-02-12T00:09:54.376Z,10.23
2019-02-12T00:12:25.986Z,10.97
2019-02-12T00:14:57.604Z,9.97
2019-02-12T00:17:29.228Z,10.47
2019-02-12T00:20:00.748Z,9.90
2019-02-12T00:22:33.725Z,10.37
2019-02-12T00:25:06.641Z,11.17
2019-02-12T00:27:38.271Z,10.97
2019-02-12T00:30:10.200Z,11.50
2019-02-12T00:32:41.798Z,11.13
2019-02-12T00:35:15.859Z,14.23
2019-02-12T00:37:50.349Z,12.50
2019-02-12T00:40:21.841Z,12.73
2019-02-12T00:42:53.447Z,13.70
2019-02-12T00:45:25.076Z,10.43
2019-02-12T00:47:56.577Z,11.70
2019-02-12T00:50:28.011Z,11.07
2019-02-12T00:52:59.547Z,10.57
2019-02-12T00:55:31.127Z,11.73
2019-02-12T00:58:02.767Z,11.97
2019-02-12T01:00:34.383Z,11.47
2019-02-12T01:03:08.954Z,10.63
2019-02-12T01:05:40.602Z,10.20
2019-02-12T01:08:14.627Z,12.67
2019-02-12T01:10:46.211Z,11.20
2019-02-12T01:13:19.799Z,11.30
2019-02-12T01:15:51.929Z,10.50
2019-02-12T01:18:23.600Z,10.57
2019-02-12T01:20:55.291Z,10.00
2019-02-12T01:23:27.037Z,10.93
2019-02-12T01:25:58.789Z,10.23
2019-02-12T01:28:30.367Z,9.80
2019-02-12T01:31:01.987Z,12.83
2019-02-12T01:33:33.536Z,13.80
2019-02-12T01:36:05.223Z,10.60
2019-02-12T01:38:36.914Z,11.20
2019-02-12T01:41:08.575Z,13.40
2019-02-12T01:43:40.280Z,14.60
2019-02-12T01:46:11.797Z,15.40
2019-02-12T01:48:45.520Z,13.53
2019-02-12T01:51:17.076Z,15.67
2019-02-12T01:53:48.502Z,16.67
2019-02-12T01:56:20.174Z,11.63
2019-02-12T01:58:51.805Z,13.83
2019-02-12T02:01:23.299Z,17.30
2019-02-12T02:03:54.954Z,17.00
2019-02-12T02:06:26.593Z,15.57
2019-02-12T02:08:58.297Z,16.73
2019-02-12T02:11:29.857Z,14.87
2019-02-12T02:14:01.389Z,16.17
2019-02-12T02:16:35.623Z,17.63
2019-02-12T02:19:07.179Z,14.17
2019-02-12T02:21:44.162Z,18.27
2019-02-12T02:24:12.239Z,13.87
2019-02-12T02:26:43.755Z,13.23
2019-02-12T02:29:15.303Z,15.90
2019-02-12T02:31:47.065Z,14.27
2019-02-12T02:34:18.608Z,16.63
2019-02-12T02:36:50.071Z,15.60
2019-02-12T02:39:24.770Z,17.53
2019-02-12T02:41:56.489Z,15.60
2019-02-12T02:44:29.410Z,16.33
2019-02-12T02:47:03.581Z,16.47
2019-02-12T02:49:35.261Z,14.50
2019-02-12T02:52:08.163Z,16.80
2019-02-12T02:54:41.040Z,19.37
2019-02-12T02:57:12.692Z,15.10
2019-02-12T02:59:46.490Z,16.17
2019-02-12T03:02:18.166Z,15.27
2019-02-12T03:04:52.957Z,15.47
2019-02-12T03:07:24.648Z,13.87
2019-02-12T03:09:56.345Z,13.57
2019-02-12T03:12:28.036Z,14.17
2019-02-12T03:14:59.495Z,12.57
2019-02-12T03:17:31.167Z,12.97
2019-02-12T03:20:02.793Z,12.63
2019-02-12T03:22:34.970Z,12.07
2019-02-12T03:25:06.852Z,12.00
2019-02-12T03:27:38.566Z,12.47
2019-02-12T03:30:11.157Z,12.20
2019-02-12T03:32:42.946Z,11.07
2019-02-12T03:35:14.821Z,11.43
2019-02-12T03:37:46.512Z,12.13
2019-02-12T03:40:18.230Z,11.47
2019-02-12T03:42:49.907Z,12.53
2019-02-12T03:45:21.522Z,12.57
2019-02-12T03:47:53.225Z,12.63
2019-02-12T03:50:24.959Z,12.73
2019-02-12T03:52:56.719Z,13.37
2019-02-12T03:55:28.312Z,11.53
2019-02-12T03:58:01.209Z,13.57
2019-02-12T04:00:32.902Z,12.47
2019-02-12T04:03:08.957Z,12.23
2019-02-12T04:05:41.234Z,13.33
2019-02-12T04:08:12.903Z,12.57
2019-02-12T04:10:44.608Z,18.90
2019-02-12T04:13:16.361Z,16.60
2019-02-12T04:15:48.049Z,16.40
2019-02-12T04:18:19.670Z,17.03
2019-02-12T04:20:51.331Z,16.10
2019-02-12T04:23:23.041Z,16.90
2019-02-12T04:25:54.759Z,14.93
2019-02-12T04:28:26.218Z,14.33
2019-02-12T04:30:57.838Z,13.17
2019-02-12T04:33:29.356Z,14.40
2019-02-12T04:36:00.876Z,12.60
2019-02-12T04:38:32.547Z,12.13
2019-02-12T04:41:04.034Z,10.57
2019-02-12T04:43:35.632Z,11.93
2019-02-12T04:46:07.168Z,11.43
2019-02-12T04:48:38.638Z,11.77
2019-02-12T04:51:10.274Z,12.83
2019-02-12T04:53:41.919Z,12.30
2019-02-12T04:56:13.379Z,12.20
2019-02-12T04:58:44.917Z,12.23
2019-02-12T05:01:17.889Z,12.37
2019-02-12T05:03:49.587Z,19.63
2019-02-12T05:06:21.213Z,21.60
2019-02-12T05:09:12.904Z,16.03
2019-02-12T05:11:47.268Z,12.60
2019-02-12T05:14:18.944Z,11.97
2019-02-12T05:16:50.425Z,11.87
2019-02-12T05:19:23.261Z,23.67
2019-02-12T05:21:54.773Z,23.10
2019-02-12T05:24:26.638Z,28.27
2019-02-12T05:26:58.257Z,26.17
2019-02-12T05:29:29.941Z,27.80
2019-02-12T05:32:01.474Z,23.57
2019-02-12T05:34:33.104Z,23.33
2019-02-12T05:37:04.768Z,23.80
2019-02-12T05:39:36.302Z,23.87
2019-02-12T05:42:07.790Z,22.57
2019-02-12T05:44:39.511Z,23.30
2019-02-12T05:47:12.709Z,23.43
2019-02-12T05:49:44.356Z,24.20
2019-02-12T05:52:16.146Z,24.90
2019-02-12T05:54:47.806Z,24.03
2019-02-12T05:57:19.409Z,25.23
2019-02-12T05:59:51.041Z,25.97
2019-02-12T06:02:22.570Z,26.93
2019-02-12T06:04:54.203Z,27.23
2019-02-12T06:07:25.775Z,25.83
2019-02-12T06:09:57.400Z,28.03
2019-02-12T06:12:28.985Z,28.10
2019-02-12T06:15:00.639Z,29.77
2019-02-12T06:17:32.177Z,30.27
2019-02-12T06:20:03.741Z,29.30
2019-02-12T06:22:35.332Z,29.97
2019-02-12T06:25:08.405Z,31.83
2019-02-12T06:27:40.450Z,29.30
2019-02-12T06:30:12.220Z,31.20
2019-02-12T06:32:43.811Z,30.60
2019-02-12T06:35:15.462Z,31.03
2019-02-12T06:37:47.013Z,27.23
2019-02-12T06:40:18.812Z,25.20
2019-02-12T06:42:50.324Z,24.77
2019-02-12T06:45:21.919Z,34.47
2019-02-12T06:47:53.597Z,29.77
2019-02-12T06:50:26.409Z,24.13
2019-02-12T06:52:58.044Z,20.60
2019-02-12T06:55:29.685Z,19.67
2019-02-12T06:58:01.302Z,16.20
2019-02-12T07:00:32.813Z,18.17
2019-02-12T07:03:22.082Z,19.83
2019-02-12T07:06:06.965Z,15.70
2019-02-12T07:08:45.156Z,18.27
2019-02-12T07:11:43.523Z,19.33
2019-02-12T07:14:29.477Z,18.07
2019-02-12T07:17:40.458Z,26.53
2019-02-12T07:20:38.577Z,18.20
2019-02-12T07:23:38.482Z,13.07
2019-02-12T07:26:47.082Z,11.50
2019-02-12T07:30:03.720Z,12.27
2019-02-12T07:32:50.064Z,9.43
2019-02-12T07:36:02.149Z,8.43
2019-02-12T07:38:55.995Z,9.30
2019-02-12T07:41:59.257Z,11.03
2019-02-12T07:44:58.447Z,8.57
2019-02-12T07:48:07.857Z,8.57
2019-02-12T07:51:13.762Z,9.67
2019-02-12T07:54:28.567Z,9.47
2019-02-12T07:57:26.027Z,9.90
2019-02-12T08:00:30.633Z,7.73
2019-02-12T08:03:28.496Z,6.47
2019-02-12T08:06:31.604Z,5.57
2019-02-12T08:09:46.153Z,4.60
2019-02-12T08:13:01.843Z,4.10
2019-02-12T08:15:58.791Z,5.47
2019-02-12T08:18:57.327Z,6.40
2019-02-12T08:21:56.523Z,7.13
2019-02-12T08:24:47.340Z,7.83
2019-02-12T08:28:29.686Z,7.57
2019-02-12T08:31:53.558Z,7.63
2019-02-12T08:35:06.326Z,6.87
2019-02-12T08:38:07.489Z,6.47
2019-02-12T08:41:10.507Z,5.33
2019-02-12T08:44:05.758Z,6.00
2019-02-12T08:47:29.986Z,4.87
2019-02-12T08:50:57.380Z,5.37
2019-02-12T08:54:11.176Z,4.47
2019-02-12T08:57:00.429Z,3.50
2019-02-12T09:00:09.990Z,3.37
2019-02-12T09:03:22.002Z,3.30
2019-02-12T09:06:18.318Z,4.27
2019-02-12T09:09:31.189Z,3.93
2019-02-12T09:12:22.305Z,4.93
2019-02-12T09:15:28.204Z,5.53
2019-02-12T09:18:21.668Z,3.70
2019-02-12T09:21:11.120Z,2.90
2019-02-12T09:24:00.581Z,3.40
2019-02-12T09:27:12.483Z,2.93
2019-02-12T09:30:06.867Z,2.97
2019-02-12T09:33:19.013Z,3.40
2019-02-12T09:36:20.949Z,3.23
2019-02-12T09:39:37.684Z,3.40
2019-02-12T09:42:33.281Z,4.60
2019-02-12T09:45:27.144Z,4.20
2019-02-12T09:48:43.396Z,3.87
2019-02-12T09:51:32.813Z,4.50
2019-02-12T09:54:26.130Z,4.40
2019-02-12T09:57:26.891Z,4.20
2019-02-12T10:00:21.372Z,4.47
2019-02-12T10:03:37.948Z,3.80
2019-02-12T10:06:51.884Z,4.60
2019-02-12T10:09:44.370Z,4.37
2019-02-12T10:13:08.531Z,4.20
2019-02-12T10:16:29.120Z,4.13
2019-02-12T10:19:45.872Z,3.20
2019-02-12T10:23:02.581Z,4.03
2019-02-12T10:25:40.328Z,8.20
2019-02-12T10:28:50.866Z,6.77
2019-02-12T10:31:31.208Z,5.10
2019-02-12T10:34:02.885Z,4.17
2019-02-12T10:36:34.489Z,4.30
2019-02-12T10:39:08.801Z,4.40
2019-02-12T10:41:40.315Z,4.63
2019-02-12T10:44:13.115Z,4.30
2019-02-12T10:46:44.760Z,3.97
2019-02-12T10:49:16.537Z,3.97
2019-02-12T10:51:48.259Z,5.07
2019-02-12T10:54:27.628Z,3.50
2019-02-12T10:56:53.451Z,3.83
2019-02-12T10:59:25.118Z,4.00
2019-02-12T11:01:56.655Z,3.83
2019-02-12T11:04:28.259Z,3.47
2019-02-12T11:06:59.828Z,3.43
2019-02-12T11:09:31.426Z,3.33
2019-02-12T11:12:03.117Z,3.50
2019-02-12T11:14:36.268Z,2.77
2019-02-12T11:17:08.060Z,3.07
2019-02-12T11:19:39.765Z,2.93
2019-02-12T11:22:14.229Z,3.20
2019-02-12T11:24:45.827Z,4.83
2019-02-12T11:27:17.618Z,3.30
2019-02-12T11:29:49.321Z,3.90
2019-02-12T11:32:21.207Z,2.70
2019-02-12T11:34:52.840Z,4.40
2019-02-12T11:37:24.504Z,2.80
2019-02-12T11:39:56.092Z,3.43
2019-02-12T11:42:27.790Z,3.10
2019-02-12T11:44:59.347Z,2.70
2019-02-12T11:47:31.208Z,2.27
2019-02-12T11:50:02.794Z,2.13
2019-02-12T11:52:36.043Z,7.30
2019-02-12T11:55:08.315Z,5.73
2019-02-12T11:57:41.992Z,4.53
2019-02-12T12:00:20.623Z,3.10
2019-02-12T12:02:53.610Z,2.90
2019-02-12T12:05:25.344Z,2.73
2019-02-12T12:07:57.051Z,2.73
2019-02-12T12:10:28.668Z,5.30
2019-02-12T12:13:00.327Z,7.33
2019-02-12T12:15:31.903Z,13.47
2019-02-12T12:18:03.679Z,6.40
2019-02-12T12:20:35.396Z,6.87
2019-02-12T12:23:07.134Z,5.70
2019-02-12T12:25:38.776Z,9.73
2019-02-12T12:28:10.573Z,29.40
2019-02-12T12:30:42.335Z,12.97
2019-02-12T12:33:14.059Z,11.10
2019-02-12T12:35:45.723Z,22.70
2019-02-12T12:38:17.374Z,11.60
2019-02-12T12:40:49.067Z,8.90
2019-02-12T12:43:20.673Z,5.67
2019-02-12T12:45:52.357Z,4.73
2019-02-12T12:48:24.075Z,13.13
2019-02-12T12:50:55.777Z,18.83
2019-02-12T12:53:27.365Z,8.53
2019-02-12T12:55:59.033Z,9.70
2019-02-12T12:58:30.728Z,10.73
2019-02-12T13:01:02.349Z,9.03
2019-02-12T13:03:34.255Z,6.93
2019-02-12T13:06:05.942Z,13.40
2019-02-12T13:08:39.182Z,14.77
2019-02-12T13:11:10.960Z,13.77
2019-02-12T13:13:42.791Z,10.57
2019-02-12T13:16:14.591Z,13.47
2019-02-12T13:18:46.290Z,8.83
2019-02-12T13:21:17.952Z,6.97
2019-02-12T13:23:49.661Z,13.17
2019-02-12T13:26:21.288Z,6.80
2019-02-12T13:28:52.955Z,21.87
2019-02-12T13:31:24.719Z,12.30
2019-02-12T13:33:58.694Z,19.30
2019-02-12T13:36:30.465Z,10.83
2019-02-12T13:39:02.250Z,13.27
2019-02-12T13:41:34.161Z,19.33
2019-02-12T13:44:05.805Z,20.30
2019-02-12T13:46:37.677Z,20.07
2019-02-12T13:49:09.376Z,34.83
2019-02-12T13:51:41.094Z,28.57
2019-02-12T13:54:12.758Z,18.60
2019-02-12T13:56:44.488Z,16.43
2019-02-12T13:59:16.080Z,21.83
2019-02-12T14:01:47.984Z,12.37
2019-02-12T14:04:20.876Z,24.03
2019-02-12T14:06:52.565Z,18.27
2019-02-12T14:09:24.408Z,24.93
2019-02-12T14:11:56.253Z,17.67
2019-02-12T14:14:27.986Z,29.43
2019-02-12T14:16:59.574Z,35.53
2019-02-12T14:19:31.434Z,40.73
2019-02-12T14:22:03.292Z,43.13
2019-02-12T14:24:34.928Z,31.30
2019-02-12T14:27:06.565Z,58.33
2019-02-12T14:29:38.227Z,33.20
2019-02-12T14:32:10.027Z,45.13
2019-02-12T14:34:41.529Z,44.07
2019-02-12T14:37:13.205Z,42.77
2019-02-12T14:39:44.894Z,24.47
2019-02-12T14:42:16.520Z,40.93
2019-02-12T14:44:48.239Z,35.27
2019-02-12T14:47:19.998Z,13.97
2019-02-12T14:49:51.792Z,34.90
2019-02-12T14:52:25.334Z,14.67
2019-02-12T14:54:57.033Z,25.97
2019-02-12T14:57:28.724Z,15.27
2019-02-12T15:00:00.563Z,20.27
2019-02-12T15:02:33.503Z,26.17
2019-02-12T15:05:05.596Z,21.87
2019-02-12T15:07:38.658Z,20.10
2019-02-12T15:10:11.553Z,34.63
2019-02-12T15:12:43.431Z,16.77
2019-02-12T15:15:15.267Z,42.57
2019-02-12T15:17:47.025Z,10.93
2019-02-12T15:20:21.162Z,15.53
2019-02-12T15:22:52.847Z,19.80
2019-02-12T15:25:25.184Z,14.87
2019-02-12T15:27:56.966Z,11.07
2019-02-12T15:30:29.197Z,9.70
2019-02-12T15:33:05.107Z,12.03
2019-02-12T15:35:36.749Z,10.33
2019-02-12T15:38:08.496Z,8.30
2019-02-12T15:40:40.126Z,9.00
2019-02-12T15:43:12.085Z,7.63
2019-02-12T15:45:43.890Z,4.47
2019-02-12T15:48:18.539Z,5.30
2019-02-12T15:50:50.241Z,6.00
2019-02-12T15:53:21.904Z,5.77
2019-02-12T15:55:53.550Z,4.87
2019-02-12T15:58:26.369Z,5.73
2019-02-12T16:00:58.486Z,5.03
2019-02-12T16:03:30.237Z,5.60
2019-02-12T16:06:02.021Z,7.40
2019-02-12T16:08:33.765Z,5.80
2019-02-12T16:11:05.774Z,5.77
2019-02-12T16:13:37.661Z,5.40
2019-02-12T16:16:09.968Z,5.80
2019-02-12T16:18:43.360Z,6.23
2019-02-12T16:21:15.546Z,6.67
2019-02-12T16:23:47.153Z,6.50
2019-02-12T16:26:19.000Z,6.20
2019-02-12T16:28:50.614Z,7.70
2019-02-12T16:31:22.462Z,6.60
2019-02-12T16:33:54.303Z,8.77
2019-02-12T16:36:25.978Z,9.00
2019-02-12T16:38:57.681Z,7.37
2019-02-12T16:41:30.421Z,7.17
2019-02-12T16:44:02.156Z,9.30
2019-02-12T16:46:33.954Z,7.27
2019-02-12T16:49:05.650Z,7.43
2019-02-12T16:51:37.424Z,7.27
2019-02-12T16:54:09.140Z,6.73
2019-02-12T16:56:40.832Z,8.17
2019-02-12T16:59:13.545Z,9.17
2019-02-12T17:01:47.818Z,10.63
2019-02-12T17:04:19.558Z,7.57
2019-02-12T17:06:51.349Z,6.80
2019-02-12T17:09:23.213Z,6.03
2019-02-12T17:11:54.832Z,7.13
2019-02-12T17:14:27.680Z,7.90
2019-02-12T17:17:03.847Z,5.93
2019-02-12T17:19:37.172Z,11.23
2019-02-12T17:22:08.966Z,15.13
2019-02-12T17:24:40.795Z,2.40
2019-02-12T17:27:12.535Z,2.70
2019-02-12T17:29:44.308Z,2.07
2019-02-12T17:32:16.221Z,2.77
2019-02-12T17:34:47.971Z,2.17
2019-02-12T17:37:19.765Z,3.50
2019-02-12T17:39:52.590Z,4.87
2019-02-12T17:42:24.747Z,2.73
2019-02-12T17:44:56.438Z,9.77
2019-02-12T17:47:30.672Z,35.20
2019-02-12T17:50:02.392Z,13.50
2019-02-12T17:52:34.277Z,9.07
2019-02-12T17:55:06.431Z,3.93
2019-02-12T17:57:38.069Z,3.40
2019-02-12T18:00:15.395Z,4.17
2019-02-12T18:02:47.092Z,2.90
2019-02-12T18:05:21.710Z,3.17
2019-02-12T18:07:53.355Z,6.23
2019-02-12T18:10:30.001Z,9.10
2019-02-12T18:13:01.677Z,16.10
2019-02-12T18:15:34.839Z,9.23
2019-02-12T18:18:06.560Z,4.33
2019-02-12T18:20:39.416Z,11.90
2019-02-12T18:23:11.058Z,10.87
2019-02-12T18:25:43.003Z,6.33
2019-02-12T18:28:14.774Z,20.03
2019-02-12T18:30:47.915Z,13.30
2019-02-12T18:33:19.654Z,5.83
2019-02-12T18:35:51.399Z,8.90
2019-02-12T18:38:23.095Z,9.80
2019-02-12T18:40:54.770Z,4.37
2019-02-12T18:43:26.900Z,3.70
2019-02-12T18:45:59.103Z,3.60
2019-02-12T18:48:30.851Z,2.97
2019-02-12T18:51:03.284Z,3.00
2019-02-12T18:53:35.295Z,3.40
2019-02-12T18:56:08.372Z,5.70
2019-02-12T18:58:41.252Z,6.17
2019-02-12T19:01:14.980Z,19.43
2019-02-12T19:03:46.805Z,23.33
2019-02-12T19:06:20.786Z,4.70
2019-02-12T19:08:52.976Z,4.13
2019-02-12T19:11:24.656Z,3.23
2019-02-12T19:14:00.209Z,3.00
2019-02-12T19:16:35.400Z,7.03
2019-02-12T19:19:08.388Z,7.30
2019-02-12T19:21:41.443Z,4.97
2019-02-12T19:24:14.645Z,3.20
2019-02-12T19:26:49.926Z,2.63
2019-02-12T19:29:21.155Z,2.60
2019-02-12T19:31:59.110Z,3.30
2019-02-12T19:34:26.637Z,2.70
2019-02-12T19:36:58.519Z,7.77
2019-02-12T19:39:30.203Z,4.33
2019-02-12T19:42:01.919Z,4.30
2019-02-12T19:44:35.074Z,3.03
2019-02-12T19:47:06.827Z,3.17
2019-02-12T19:49:39.605Z,3.40
2019-02-12T19:52:14.083Z,3.37
2019-02-12T19:54:45.862Z,2.87
2019-02-12T19:57:19.147Z,2.93
2019-02-12T19:59:51.063Z,3.43
2019-02-12T20:02:23.319Z,9.53
2019-02-12T20:04:55.424Z,15.10
2019-02-12T20:07:27.035Z,6.77
2019-02-12T20:10:00.599Z,23.00
2019-02-12T20:12:32.361Z,12.07
2019-02-12T20:15:04.052Z,4.63
2019-02-12T20:17:36.340Z,55.87
2019-02-12T20:20:09.015Z,63.67
2019-02-12T20:22:41.112Z,41.77
2019-02-12T20:25:12.896Z,26.93
2019-02-12T20:27:46.926Z,22.13
2019-02-12T20:30:20.125Z,25.00
2019-02-12T20:32:51.983Z,29.67
2019-02-12T20:35:25.289Z,19.07
2019-02-12T20:37:57.155Z,18.67
2019-02-12T20:40:36.582Z,12.93
2019-02-12T20:43:09.663Z,10.93
2019-02-12T20:45:41.808Z,10.17
2019-02-12T20:48:13.556Z,13.63
2019-02-12T20:50:45.407Z,24.17
2019-02-12T20:53:20.022Z,8.90
2019-02-12T20:55:54.609Z,8.10
2019-02-12T20:58:25.907Z,5.23
2019-02-12T21:00:58.753Z,6.80
2019-02-12T21:03:32.000Z,4.90
2019-02-12T21:06:06.077Z,3.90
2019-02-12T21:08:38.702Z,3.50
2019-02-12T21:11:14.089Z,3.40
2019-02-12T21:13:46.011Z,3.90
2019-02-12T21:16:18.226Z,3.73
2019-02-12T21:18:50.107Z,3.53
2019-02-12T21:21:21.758Z,3.27
2019-02-12T21:23:53.425Z,3.80
2019-02-12T21:26:26.853Z,3.90
2019-02-12T21:28:58.505Z,4.93
2019-02-12T21:31:30.197Z,4.37
2019-02-12T21:34:01.835Z,4.87
2019-02-12T21:36:33.571Z,5.07
2019-02-12T21:39:06.314Z,4.23
2019-02-12T21:41:37.949Z,4.30
2019-02-12T21:44:09.563Z,3.57
2019-02-12T21:46:41.085Z,4.43
2019-02-12T21:49:14.159Z,4.43
2019-02-12T21:51:48.123Z,4.23
2019-02-12T21:54:19.983Z,3.90
2019-02-12T21:56:51.640Z,4.07
2019-02-12T21:59:23.289Z,4.67
2019-02-12T22:01:54.932Z,4.20
2019-02-12T22:04:26.648Z,4.50
2019-02-12T22:06:58.381Z,4.40
2019-02-12T22:09:31.384Z,4.97
2019-02-12T22:12:03.111Z,4.40
2019-02-12T22:14:37.205Z,5.10
2019-02-12T22:17:08.831Z,4.80
2019-02-12T22:19:40.451Z,5.03
2019-02-12T22:22:12.225Z,5.37
2019-02-12T22:24:43.701Z,4.30
2019-02-12T22:27:15.305Z,4.57
2019-02-12T22:29:46.802Z,3.73
2019-02-12T22:32:18.698Z,4.00
2019-02-12T22:34:52.998Z,3.60
2019-02-12T22:37:24.645Z,4.33
2019-02-12T22:39:56.160Z,4.90
2019-02-12T22:42:31.023Z,4.83
2019-02-12T22:45:02.596Z,5.20
2019-02-12T22:47:34.176Z,6.00
2019-02-12T22:50:06.042Z,5.57
2019-02-12T22:52:37.612Z,3.87
2019-02-12T22:55:09.413Z,4.57
2019-02-12T22:57:48.885Z,3.80
2019-02-12T23:00:24.445Z,3.30
2019-02-12T23:02:57.637Z,3.07
2019-02-12T23:05:29.262Z,3.27
2019-02-12T23:08:00.827Z,4.00
2019-02-12T23:10:35.383Z,3.57
2019-02-12T23:13:07.047Z,4.00
2019-02-12T23:15:38.798Z,3.10
2019-02-12T23:18:10.473Z,3.50
2019-02-12T23:20:42.126Z,4.57
2019-02-12T23:23:13.795Z,4.80
2019-02-12T23:25:45.729Z,4.37
2019-02-12T23:28:17.352Z,5.00
2019-02-12T23:30:48.881Z,4.80
2019-02-12T23:33:20.516Z,4.80
2019-02-12T23:35:52.179Z,4.90
2019-02-12T23:38:23.876Z,4.80
2019-02-12T23:40:55.396Z,5.50
2019-02-12T23:43:27.026Z,5.10
2019-02-12T23:45:58.752Z,5.23
2019-02-12T23:48:30.378Z,4.73
2019-02-12T23:51:01.886Z,5.07
2019-02-12T23:53:33.552Z,4.87
2019-02-12T23:56:05.172Z,5.13
2019-02-12T23:58:36.864Z,5.00
